Emmalane, Georgia
Current Conditions -  °F | °C
As of 3:55 AM on Sunday 23 Nov 2014 (Local Time) from KJYL Reporting Station
Moderate Rain Moderate Rain  
Wind Chill: 58°   Ceiling: 4600
Heat Index: 58°   Visibility: 4mi
Dew Point: 57°   Wind: 10mph
Humidity: 97%   Direction: 80°E
Pressure: 30.15"   Gusts: NA
Location:  32.7727°N, 81.9794°W
Report Text: KJYL 230855Z AUTO 08009KT 4SM RA SCT004 SCT029 OVC046 14/14 A3015 RMK AO2 T01420138
Loading
Personal Weather Stations






























Interactive Weather Map New forecast layout! Learn more

10-Day Weather Forecast

Advertisements
Track Severe Weather on mobile